sensor_id;sensor_type;location;lat;lon;timestamp;pressure;altitude;pressure_sealevel;temperature
48894;BMP280;34710;35.798;139.446;2022-09-20T00:01:39;98876.35;;;31.58
48894;BMP280;34710;35.798;139.446;2022-09-20T00:04:10;98884.52;;;31.48
48894;BMP280;34710;35.798;139.446;2022-09-20T00:06:40;98891.04;;;31.80
48894;BMP280;34710;35.798;139.446;2022-09-20T00:09:09;98890.28;;;31.68
48894;BMP280;34710;35.798;139.446;2022-09-20T00:11:38;98895.89;;;31.49
48894;BMP280;34710;35.798;139.446;2022-09-20T00:14:08;98905.66;;;31.61
48894;BMP280;34710;35.798;139.446;2022-09-20T00:16:39;98910.80;;;31.82
48894;BMP280;34710;35.798;139.446;2022-09-20T00:19:16;98918.95;;;31.51
48894;BMP280;34710;35.798;139.446;2022-09-20T00:21:46;98922.98;;;31.81
48894;BMP280;34710;35.798;139.446;2022-09-20T00:24:15;98937.40;;;31.00
48894;BMP280;34710;35.798;139.446;2022-09-20T00:26:44;98945.23;;;29.95
48894;BMP280;34710;35.798;139.446;2022-09-20T00:29:14;98951.12;;;28.84
48894;BMP280;34710;35.798;139.446;2022-09-20T00:31:43;98953.03;;;28.64
48894;BMP280;34710;35.798;139.446;2022-09-20T00:34:13;98955.86;;;27.99
48894;BMP280;34710;35.798;139.446;2022-09-20T00:36:42;98967.14;;;28.09
48894;BMP280;34710;35.798;139.446;2022-09-20T00:39:14;98969.80;;;26.67
48894;BMP280;34710;35.798;139.446;2022-09-20T00:41:44;98974.22;;;27.09
48894;BMP280;34710;35.798;139.446;2022-09-20T00:44:55;98967.76;;;26.67
48894;BMP280;34710;35.798;139.446;2022-09-20T00:47:35;98965.95;;;25.59
48894;BMP280;34710;35.798;139.446;2022-09-20T00:50:18;98973.10;;;25.67
48894;BMP280;34710;35.798;139.446;2022-09-20T00:52:56;98980.62;;;25.91
48894;BMP280;34710;35.798;139.446;2022-09-20T00:55:28;98978.29;;;26.11
48894;BMP280;34710;35.798;139.446;2022-09-20T00:57:58;98981.93;;;26.21
48894;BMP280;34710;35.798;139.446;2022-09-20T01:00:29;98989.26;;;26.51
48894;BMP280;34710;35.798;139.446;2022-09-20T01:03:02;98982.35;;;26.79
48894;BMP280;34710;35.798;139.446;2022-09-20T01:05:33;98978.90;;;26.99
48894;BMP280;34710;35.798;139.446;2022-09-20T01:08:03;98964.72;;;27.32
48894;BMP280;34710;35.798;139.446;2022-09-20T01:10:33;98960.03;;;27.13
48894;BMP280;34710;35.798;139.446;2022-09-20T01:13:02;98955.14;;;26.95
48894;BMP280;34710;35.798;139.446;2022-09-20T01:15:32;98954.23;;;26.77
48894;BMP280;34710;35.798;139.446;2022-09-20T01:18:06;98954.16;;;27.20
48894;BMP280;34710;35.798;139.446;2022-09-20T01:20:39;98953.18;;;27.22
48894;BMP280;34710;35.798;139.446;2022-09-20T01:23:36;98949.09;;;27.09
48894;BMP280;34710;35.798;139.446;2022-09-20T01:26:23;98947.52;;;27.06
48894;BMP280;34710;35.798;139.446;2022-09-20T01:29:04;98934.80;;;26.92
48894;BMP280;34710;35.798;139.446;2022-09-20T01:31:42;98932.97;;;27.35
48894;BMP280;34710;35.798;139.446;2022-09-20T01:34:16;98941.22;;;27.04
48894;BMP280;34710;35.798;139.446;2022-09-20T01:36:50;98940.76;;;27.84
48894;BMP280;34710;35.798;139.446;2022-09-20T01:39:28;98938.44;;;27.68
48894;BMP280;34710;35.798;139.446;2022-09-20T01:42:07;98931.23;;;27.77
48894;BMP280;34710;35.798;139.446;2022-09-20T01:44:41;98936.33;;;27.74
48894;BMP280;34710;35.798;139.446;2022-09-20T01:47:21;98946.88;;;27.77
48894;BMP280;34710;35.798;139.446;2022-09-20T01:50:01;98950.48;;;27.83
48894;BMP280;34710;35.798;139.446;2022-09-20T01:53:40;98964.61;;;28.40
48894;BMP280;34710;35.798;139.446;2022-09-20T01:56:36;98984.61;;;27.39
48894;BMP280;34710;35.798;139.446;2022-09-20T01:59:26;99002.56;;;27.39
48894;BMP280;34710;35.798;139.446;2022-09-20T02:02:08;99010.94;;;27.08
48894;BMP280;34710;35.798;139.446;2022-09-20T02:05:09;99014.26;;;27.08
48894;BMP280;34710;35.798;139.446;2022-09-20T02:08:04;99012.64;;;26.59
48894;BMP280;34710;35.798;139.446;2022-09-20T02:11:09;99019.40;;;26.52
48894;BMP280;34710;35.798;139.446;2022-09-20T02:14:10;99035.93;;;26.52
48894;BMP280;34710;35.798;139.446;2022-09-20T02:16:54;99040.69;;;26.86
48894;BMP280;34710;35.798;139.446;2022-09-20T02:19:37;99041.56;;;26.95
48894;BMP280;34710;35.798;139.446;2022-09-20T02:22:18;99037.94;;;26.87
48894;BMP280;34710;35.798;139.446;2022-09-20T02:24:57;99035.69;;;26.73
48894;BMP280;34710;35.798;139.446;2022-09-20T02:27:37;99044.26;;;26.69
48894;BMP280;34710;35.798;139.446;2022-09-20T02:30:18;99038.50;;;26.91
48894;BMP280;34710;35.798;139.446;2022-09-20T02:33:06;99036.43;;;27.23
48894;BMP280;34710;35.798;139.446;2022-09-20T02:35:50;99045.89;;;27.15
48894;BMP280;34710;35.798;139.446;2022-09-20T02:38:38;99053.38;;;26.95
48894;BMP280;34710;35.798;139.446;2022-09-20T02:41:25;99049.81;;;27.12
48894;BMP280;34710;35.798;139.446;2022-09-20T02:44:06;99043.48;;;27.00
48894;BMP280;34710;35.798;139.446;2022-09-20T02:46:44;99039.97;;;26.17
48894;BMP280;34710;35.798;139.446;2022-09-20T02:49:22;99030.32;;;25.83
48894;BMP280;34710;35.798;139.446;2022-09-20T02:51:59;99029.87;;;25.51
48894;BMP280;34710;35.798;139.446;2022-09-20T02:54:41;99036.19;;;25.88
48894;BMP280;34710;35.798;139.446;2022-09-20T02:57:22;99030.11;;;24.93
48894;BMP280;34710;35.798;139.446;2022-09-20T02:59:59;99030.35;;;25.30
48894;BMP280;34710;35.798;139.446;2022-09-20T03:02:39;99034.30;;;25.54
48894;BMP280;34710;35.798;139.446;2022-09-20T03:05:21;99043.30;;;24.51
48894;BMP280;34710;35.798;139.446;2022-09-20T03:08:06;99050.06;;;24.78
48894;BMP280;34710;35.798;139.446;2022-09-20T03:10:43;99048.84;;;24.61
48894;BMP280;34710;35.798;139.446;2022-09-20T03:13:25;99042.48;;;24.05
48894;BMP280;34710;35.798;139.446;2022-09-20T03:16:07;99053.38;;;24.77
48894;BMP280;34710;35.798;139.446;2022-09-20T03:18:47;99056.08;;;24.21
48894;BMP280;34710;35.798;139.446;2022-09-20T03:21:28;99058.55;;;24.65
48894;BMP280;34710;35.798;139.446;2022-09-20T03:24:12;99042.79;;;24.67
48894;BMP280;34710;35.798;139.446;2022-09-20T03:26:52;99040.37;;;24.37
48894;BMP280;34710;35.798;139.446;2022-09-20T03:29:36;99047.99;;;24.04
48894;BMP280;34710;35.798;139.446;2022-09-20T03:32:22;99056.52;;;24.00
48894;BMP280;34710;35.798;139.446;2022-09-20T03:35:04;99083.30;;;23.78
48894;BMP280;34710;35.798;139.446;2022-09-20T03:37:49;99098.27;;;23.71
48894;BMP280;34710;35.798;139.446;2022-09-20T03:40:35;99109.79;;;23.69
48894;BMP280;34710;35.798;139.446;2022-09-20T03:43:15;99118.04;;;23.49
48894;BMP280;34710;35.798;139.446;2022-09-20T03:46:00;99122.19;;;23.24
48894;BMP280;34710;35.798;139.446;2022-09-20T03:48:55;99123.91;;;23.01
48894;BMP280;34710;35.798;139.446;2022-09-20T03:51:30;99132.93;;;22.78
48894;BMP280;34710;35.798;139.446;2022-09-20T03:54:26;99146.20;;;22.64
48894;BMP280;34710;35.798;139.446;2022-09-20T03:57:23;99166.61;;;22.58
48894;BMP280;34710;35.798;139.446;2022-09-20T04:00:07;99164.53;;;22.60
48894;BMP280;34710;35.798;139.446;2022-09-20T04:02:55;99169.94;;;22.92
48894;BMP280;34710;35.798;139.446;2022-09-20T04:05:34;99173.67;;;22.36
48894;BMP280;34710;35.798;139.446;2022-09-20T04:08:16;99176.47;;;22.14
48894;BMP280;34710;35.798;139.446;2022-09-20T04:10:56;99179.20;;;22.05
48894;BMP280;34710;35.798;139.446;2022-09-20T04:13:36;99185.75;;;22.57
48894;BMP280;34710;35.798;139.446;2022-09-20T04:16:19;99197.40;;;22.79
48894;BMP280;34710;35.798;139.446;2022-09-20T04:18:54;99211.75;;;23.02
48894;BMP280;34710;35.798;139.446;2022-09-20T04:21:29;99215.15;;;22.99
48894;BMP280;34710;35.798;139.446;2022-09-20T04:24:07;99218.37;;;22.94
48894;BMP280;34710;35.798;139.446;2022-09-20T04:26:44;99214.65;;;23.41
48894;BMP280;34710;35.798;139.446;2022-09-20T04:29:35;99210.94;;;23.14
48894;BMP280;34710;35.798;139.446;2022-09-20T04:32:14;99213.19;;;23.81
48894;BMP280;34710;35.798;139.446;2022-09-20T04:34:48;99207.03;;;23.74
48894;BMP280;34710;35.798;139.446;2022-09-20T04:37:26;99191.27;;;23.42
48894;BMP280;34710;35.798;139.446;2022-09-20T04:40:05;99169.61;;;23.84
48894;BMP280;34710;35.798;139.446;2022-09-20T04:43:39;99148.91;;;24.73
48894;BMP280;34710;35.798;139.446;2022-09-20T04:46:27;99135.79;;;24.30
48894;BMP280;34710;35.798;139.446;2022-09-20T04:49:52;99135.83;;;24.59
48894;BMP280;34710;35.798;139.446;2022-09-20T04:53:05;99130.45;;;24.22
48894;BMP280;34710;35.798;139.446;2022-09-20T04:55:49;99143.56;;;24.54
48894;BMP280;34710;35.798;139.446;2022-09-20T04:58:46;99151.87;;;24.78
48894;BMP280;34710;35.798;139.446;2022-09-20T05:04:30;99197.79;;;26.10
48894;BMP280;34710;35.798;139.446;2022-09-20T05:07:24;99234.76;;;24.90
48894;BMP280;34710;35.798;139.446;2022-09-20T05:10:15;99262.47;;;24.90
48894;BMP280;34710;35.798;139.446;2022-09-20T05:13:03;99269.66;;;25.04
48894;BMP280;34710;35.798;139.446;2022-09-20T05:15:45;99287.67;;;25.04
48894;BMP280;34710;35.798;139.446;2022-09-20T05:18:44;99300.95;;;24.57
48894;BMP280;34710;35.798;139.446;2022-09-20T05:21:48;99294.55;;;25.02
48894;BMP280;34710;35.798;139.446;2022-09-20T05:24:32;99252.21;;;25.36
48894;BMP280;34710;35.798;139.446;2022-09-20T05:27:20;99217.55;;;25.71
48894;BMP280;34710;35.798;139.446;2022-09-20T05:29:58;99198.07;;;25.67
48894;BMP280;34710;35.798;139.446;2022-09-20T05:32:38;99207.37;;;25.99
48894;BMP280;34710;35.798;139.446;2022-09-20T05:35:18;99218.91;;;25.26
48894;BMP280;34710;35.798;139.446;2022-09-20T05:37:59;99223.90;;;25.62
48894;BMP280;34710;35.798;139.446;2022-09-20T05:40:34;99208.49;;;25.51
48894;BMP280;34710;35.798;139.446;2022-09-20T05:43:10;99216.06;;;25.67
48894;BMP280;34710;35.798;139.446;2022-09-20T05:45:57;99217.32;;;25.47
48894;BMP280;34710;35.798;139.446;2022-09-20T05:48:37;99217.21;;;25.46
48894;BMP280;34710;35.798;139.446;2022-09-20T05:51:16;99233.84;;;25.90
48894;BMP280;34710;35.798;139.446;2022-09-20T05:54:06;99237.53;;;25.67
48894;BMP280;34710;35.798;139.446;2022-09-20T05:56:48;99229.84;;;25.61
48894;BMP280;34710;35.798;139.446;2022-09-20T05:59:46;99224.22;;;25.34
48894;BMP280;34710;35.798;139.446;2022-09-20T06:02:28;99224.58;;;25.30
48894;BMP280;34710;35.798;139.446;2022-09-20T06:05:06;99228.93;;;25.84
48894;BMP280;34710;35.798;139.446;2022-09-20T06:07:57;99239.71;;;25.89
48894;BMP280;34710;35.798;139.446;2022-09-20T06:10:58;99237.70;;;25.91
48894;BMP280;34710;35.798;139.446;2022-09-20T06:13:48;99241.20;;;25.45
48894;BMP280;34710;35.798;139.446;2022-09-20T06:16:30;99248.67;;;26.07
48894;BMP280;34710;35.798;139.446;2022-09-20T06:19:05;99250.32;;;26.14
48894;BMP280;34710;35.798;139.446;2022-09-20T06:21:45;99248.72;;;25.91
48894;BMP280;34710;35.798;139.446;2022-09-20T06:24:30;99247.27;;;25.64
48894;BMP280;34710;35.798;139.446;2022-09-20T06:27:03;99251.45;;;25.94
48894;BMP280;34710;35.798;139.446;2022-09-20T06:29:38;99252.58;;;25.59
48894;BMP280;34710;35.798;139.446;2022-09-20T06:32:08;99257.77;;;25.24
48894;BMP280;34710;35.798;139.446;2022-09-20T06:34:38;99265.13;;;24.94
48894;BMP280;34710;35.798;139.446;2022-09-20T06:37:15;99265.33;;;25.12
48894;BMP280;34710;35.798;139.446;2022-09-20T06:39:52;99266.13;;;25.05
48894;BMP280;34710;35.798;139.446;2022-09-20T06:42:25;99259.45;;;24.96
48894;BMP280;34710;35.798;139.446;2022-09-20T06:44:54;99261.42;;;24.94
48894;BMP280;34710;35.798;139.446;2022-09-20T06:47:23;99266.28;;;25.03
48894;BMP280;34710;35.798;139.446;2022-09-20T06:49:52;99273.38;;;24.61
48894;BMP280;34710;35.798;139.446;2022-09-20T06:52:23;99279.01;;;24.69
48894;BMP280;34710;35.798;139.446;2022-09-20T06:54:54;99283.51;;;24.83
48894;BMP280;34710;35.798;139.446;2022-09-20T06:57:32;99284.01;;;24.76
48894;BMP280;34710;35.798;139.446;2022-09-20T07:00:03;99287.52;;;24.96
48894;BMP280;34710;35.798;139.446;2022-09-20T07:02:33;99290.41;;;24.91
48894;BMP280;34710;35.798;139.446;2022-09-20T07:05:02;99296.13;;;24.81
48894;BMP280;34710;35.798;139.446;2022-09-20T07:07:32;99299.61;;;24.95
48894;BMP280;34710;35.798;139.446;2022-09-20T07:10:01;99298.17;;;24.84
48894;BMP280;34710;35.798;139.446;2022-09-20T07:12:30;99299.53;;;24.55
48894;BMP280;34710;35.798;139.446;2022-09-20T07:15:00;99307.77;;;24.94
48894;BMP280;34710;35.798;139.446;2022-09-20T07:17:29;99316.21;;;24.74
48894;BMP280;34710;35.798;139.446;2022-09-20T07:19:58;99320.68;;;25.20
48894;BMP280;34710;35.798;139.446;2022-09-20T07:22:28;99327.26;;;24.88
48894;BMP280;34710;35.798;139.446;2022-09-20T07:24:57;99331.64;;;25.24
48894;BMP280;34710;35.798;139.446;2022-09-20T07:27:27;99336.87;;;25.36
48894;BMP280;34710;35.798;139.446;2022-09-20T07:29:56;99341.00;;;25.21
48894;BMP280;34710;35.798;139.446;2022-09-20T07:32:25;99348.92;;;25.15
48894;BMP280;34710;35.798;139.446;2022-09-20T07:34:55;99359.72;;;25.18
48894;BMP280;34710;35.798;139.446;2022-09-20T07:37:24;99374.54;;;25.22
48894;BMP280;34710;35.798;139.446;2022-09-20T07:39:53;99379.46;;;25.27
48894;BMP280;34710;35.798;139.446;2022-09-20T07:42:23;99386.07;;;25.36
48894;BMP280;34710;35.798;139.446;2022-09-20T07:44:52;99393.59;;;25.49
48894;BMP280;34710;35.798;139.446;2022-09-20T07:47:22;99398.46;;;25.28
48894;BMP280;34710;35.798;139.446;2022-09-20T07:49:52;99394.89;;;25.27
48894;BMP280;34710;35.798;139.446;2022-09-20T07:52:21;99396.24;;;25.23
48894;BMP280;34710;35.798;139.446;2022-09-20T07:54:50;99403.36;;;25.15
48894;BMP280;34710;35.798;139.446;2022-09-20T07:57:20;99405.96;;;25.33
48894;BMP280;34710;35.798;139.446;2022-09-20T07:59:49;99407.94;;;25.62
48894;BMP280;34710;35.798;139.446;2022-09-20T08:02:19;99408.12;;;25.28
48894;BMP280;34710;35.798;139.446;2022-09-20T08:04:48;99409.32;;;25.46
48894;BMP280;34710;35.798;139.446;2022-09-20T08:07:17;99412.90;;;25.40
48894;BMP280;34710;35.798;139.446;2022-09-20T08:09:47;99417.70;;;25.38
48894;BMP280;34710;35.798;139.446;2022-09-20T08:12:16;99430.34;;;24.90
48894;BMP280;34710;35.798;139.446;2022-09-20T08:14:46;99442.00;;;25.19
48894;BMP280;34710;35.798;139.446;2022-09-20T08:17:15;99452.31;;;25.03
48894;BMP280;34710;35.798;139.446;2022-09-20T08:19:44;99459.49;;;25.02
48894;BMP280;34710;35.798;139.446;2022-09-20T08:22:13;99461.78;;;24.71
48894;BMP280;34710;35.798;139.446;2022-09-20T08:24:43;99462.88;;;25.29
48894;BMP280;34710;35.798;139.446;2022-09-20T08:27:12;99464.54;;;25.13
48894;BMP280;34710;35.798;139.446;2022-09-20T08:29:42;99471.28;;;25.33
48894;BMP280;34710;35.798;139.446;2022-09-20T08:32:11;99477.92;;;25.00
48894;BMP280;34710;35.798;139.446;2022-09-20T08:34:40;99487.44;;;25.24
48894;BMP280;34710;35.798;139.446;2022-09-20T08:37:10;99493.70;;;25.19
48894;BMP280;34710;35.798;139.446;2022-09-20T08:39:40;99505.90;;;25.40
48894;BMP280;34710;35.798;139.446;2022-09-20T08:42:17;99513.05;;;25.01
48894;BMP280;34710;35.798;139.446;2022-09-20T08:44:53;99524.35;;;25.13
48894;BMP280;34710;35.798;139.446;2022-09-20T08:47:26;99523.74;;;25.08
48894;BMP280;34710;35.798;139.446;2022-09-20T08:49:58;99534.70;;;25.16
48894;BMP280;34710;35.798;139.446;2022-09-20T08:52:31;99544.44;;;25.30
48894;BMP280;34710;35.798;139.446;2022-09-20T08:55:01;99551.50;;;25.41
48894;BMP280;34710;35.798;139.446;2022-09-20T08:57:32;99567.60;;;24.95
48894;BMP280;34710;35.798;139.446;2022-09-20T09:00:03;99576.99;;;25.11
48894;BMP280;34710;35.798;139.446;2022-09-20T09:02:33;99580.81;;;24.62
48894;BMP280;34710;35.798;139.446;2022-09-20T09:05:05;99583.03;;;24.64
48894;BMP280;34710;35.798;139.446;2022-09-20T09:07:46;99589.39;;;24.78
48894;BMP280;34710;35.798;139.446;2022-09-20T09:10:15;99593.10;;;24.71
48894;BMP280;34710;35.798;139.446;2022-09-20T09:12:45;99600.81;;;25.21
48894;BMP280;34710;35.798;139.446;2022-09-20T09:15:30;99606.04;;;24.78
48894;BMP280;34710;35.798;139.446;2022-09-20T09:18:00;99619.15;;;24.84
48894;BMP280;34710;35.798;139.446;2022-09-20T09:20:40;99623.67;;;24.60
48894;BMP280;34710;35.798;139.446;2022-09-20T09:23:22;99633.19;;;24.48
48894;BMP280;34710;35.798;139.446;2022-09-20T09:25:53;99639.63;;;24.14
48894;BMP280;34710;35.798;139.446;2022-09-20T09:28:24;99647.01;;;24.11
48894;BMP280;34710;35.798;139.446;2022-09-20T09:31:13;99651.90;;;24.42
48894;BMP280;34710;35.798;139.446;2022-09-20T09:33:44;99656.67;;;24.27
48894;BMP280;34710;35.798;139.446;2022-09-20T09:36:19;99663.50;;;23.55
48894;BMP280;34710;35.798;139.446;2022-09-20T09:38:49;99667.79;;;24.09
48894;BMP280;34710;35.798;139.446;2022-09-20T09:41:27;99669.19;;;24.34
48894;BMP280;34710;35.798;139.446;2022-09-20T09:44:01;99673.34;;;24.31
48894;BMP280;34710;35.798;139.446;2022-09-20T09:46:32;99676.49;;;24.14
48894;BMP280;34710;35.798;139.446;2022-09-20T09:49:08;99680.76;;;24.31
48894;BMP280;34710;35.798;139.446;2022-09-20T09:51:41;99679.60;;;24.14
48894;BMP280;34710;35.798;139.446;2022-09-20T09:54:28;99679.77;;;23.53
48894;BMP280;34710;35.798;139.446;2022-09-20T09:57:09;99685.95;;;23.59
48894;BMP280;34710;35.798;139.446;2022-09-20T09:59:56;99692.61;;;23.17
48894;BMP280;34710;35.798;139.446;2022-09-20T10:02:55;99706.23;;;23.06
48894;BMP280;34710;35.798;139.446;2022-09-20T10:05:31;99718.54;;;23.87
48894;BMP280;34710;35.798;139.446;2022-09-20T10:08:18;99720.21;;;23.73
48894;BMP280;34710;35.798;139.446;2022-09-20T10:11:01;99734.71;;;23.73
48894;BMP280;34710;35.798;139.446;2022-09-20T10:13:39;99745.30;;;22.52
48894;BMP280;34710;35.798;139.446;2022-09-20T10:16:18;99754.20;;;23.07
48894;BMP280;34710;35.798;139.446;2022-09-20T10:18:57;99763.67;;;24.04
48894;BMP280;34710;35.798;139.446;2022-09-20T10:21:40;99773.93;;;23.64
48894;BMP280;34710;35.798;139.446;2022-09-20T10:24:22;99781.68;;;23.70
48894;BMP280;34710;35.798;139.446;2022-09-20T10:27:06;99791.20;;;23.76
48894;BMP280;34710;35.798;139.446;2022-09-20T10:29:51;99802.32;;;23.59
48894;BMP280;34710;35.798;139.446;2022-09-20T10:32:36;99802.71;;;23.97
48894;BMP280;34710;35.798;139.446;2022-09-20T10:35:14;99802.51;;;24.03
48894;BMP280;34710;35.798;139.446;2022-09-20T10:38:11;99804.32;;;24.03
48894;BMP280;34710;35.798;139.446;2022-09-20T10:40:53;99813.27;;;23.70
48894;BMP280;34710;35.798;139.446;2022-09-20T10:43:40;99820.64;;;23.77
48894;BMP280;34710;35.798;139.446;2022-09-20T10:46:21;99825.76;;;23.95
48894;BMP280;34710;35.798;139.446;2022-09-20T10:49:00;99827.17;;;23.99
48894;BMP280;34710;35.798;139.446;2022-09-20T10:51:40;99833.12;;;23.81
48894;BMP280;34710;35.798;139.446;2022-09-20T10:54:21;99837.53;;;23.67
48894;BMP280;34710;35.798;139.446;2022-09-20T10:56:58;99843.78;;;23.71
48894;BMP280;34710;35.798;139.446;2022-09-20T10:59:39;99847.45;;;23.43
48894;BMP280;34710;35.798;139.446;2022-09-20T11:02:31;99848.61;;;23.20
48894;BMP280;34710;35.798;139.446;2022-09-20T11:05:19;99853.27;;;23.17
48894;BMP280;34710;35.798;139.446;2022-09-20T11:07:58;99863.24;;;22.51
48894;BMP280;34710;35.798;139.446;2022-09-20T11:10:34;99871.05;;;23.06
48894;BMP280;34710;35.798;139.446;2022-09-20T11:13:10;99873.52;;;22.95
48894;BMP280;34710;35.798;139.446;2022-09-20T11:15:47;99870.82;;;23.05
48894;BMP280;34710;35.798;139.446;2022-09-20T11:18:23;99870.86;;;23.48
48894;BMP280;34710;35.798;139.446;2022-09-20T11:21:00;99870.90;;;23.02
48894;BMP280;34710;35.798;139.446;2022-09-20T11:23:41;99881.17;;;22.68
48894;BMP280;34710;35.798;139.446;2022-09-20T11:26:17;99888.48;;;22.83
48894;BMP280;34710;35.798;139.446;2022-09-20T11:28:52;99897.64;;;22.84
48894;BMP280;34710;35.798;139.446;2022-09-20T11:31:25;99898.74;;;23.08
48894;BMP280;34710;35.798;139.446;2022-09-20T11:34:02;99896.75;;;22.96
48894;BMP280;34710;35.798;139.446;2022-09-20T11:36:42;99896.14;;;22.97
48894;BMP280;34710;35.798;139.446;2022-09-20T11:39:19;99898.24;;;22.86
48894;BMP280;34710;35.798;139.446;2022-09-20T11:41:53;99899.93;;;23.07
48894;BMP280;34710;35.798;139.446;2022-09-20T11:44:23;99903.76;;;22.90
48894;BMP280;34710;35.798;139.446;2022-09-20T11:46:56;99904.05;;;23.09
48894;BMP280;34710;35.798;139.446;2022-09-20T11:49:33;99903.04;;;22.48
48894;BMP280;34710;35.798;139.446;2022-09-20T11:52:52;99904.71;;;23.13
48894;BMP280;34710;35.798;139.446;2022-09-20T11:55:34;99918.85;;;22.63
48894;BMP280;34710;35.798;139.446;2022-09-20T11:58:10;99924.39;;;22.92
48894;BMP280;34710;35.798;139.446;2022-09-20T12:00:42;99930.77;;;22.73
48894;BMP280;34710;35.798;139.446;2022-09-20T12:03:26;99937.46;;;22.00
48894;BMP280;34710;35.798;139.446;2022-09-20T12:05:59;99943.83;;;22.74
48894;BMP280;34710;35.798;139.446;2022-09-20T12:08:32;99948.50;;;22.77
48894;BMP280;34710;35.798;139.446;2022-09-20T12:11:04;99956.23;;;23.17
48894;BMP280;34710;35.798;139.446;2022-09-20T12:13:37;99964.09;;;23.26
48894;BMP280;34710;35.798;139.446;2022-09-20T12:16:12;99966.98;;;22.59
48894;BMP280;34710;35.798;139.446;2022-09-20T12:19:05;99976.36;;;22.59
48894;BMP280;34710;35.798;139.446;2022-09-20T12:22:17;99980.99;;;23.05
48894;BMP280;34710;35.798;139.446;2022-09-20T12:25:36;99979.99;;;22.96
48894;BMP280;34710;35.798;139.446;2022-09-20T12:28:14;99978.63;;;23.18
48894;BMP280;34710;35.798;139.446;2022-09-20T12:30:43;99982.10;;;23.00
48894;BMP280;34710;35.798;139.446;2022-09-20T12:33:19;99985.06;;;22.96
48894;BMP280;34710;35.798;139.446;2022-09-20T12:36:13;99989.27;;;23.27
48894;BMP280;34710;35.798;139.446;2022-09-20T12:39:16;99997.72;;;23.48
48894;BMP280;34710;35.798;139.446;2022-09-20T12:41:49;99998.18;;;23.41
48894;BMP280;34710;35.798;139.446;2022-09-20T12:44:26;99998.28;;;23.86
48894;BMP280;34710;35.798;139.446;2022-09-20T12:46:57;99999.54;;;23.69
48894;BMP280;34710;35.798;139.446;2022-09-20T12:49:49;100002.93;;;23.49
48894;BMP280;34710;35.798;139.446;2022-09-20T12:52:26;100007.37;;;23.78
48894;BMP280;34710;35.798;139.446;2022-09-20T12:54:57;100012.87;;;24.00
48894;BMP280;34710;35.798;139.446;2022-09-20T12:57:30;100018.39;;;23.58
48894;BMP280;34710;35.798;139.446;2022-09-20T13:00:02;100019.11;;;24.02
48894;BMP280;34710;35.798;139.446;2022-09-20T13:03:21;100019.48;;;24.54
48894;BMP280;34710;35.798;139.446;2022-09-20T13:06:22;100021.96;;;23.52
48894;BMP280;34710;35.798;139.446;2022-09-20T13:08:59;100024.13;;;23.90
48894;BMP280;34710;35.798;139.446;2022-09-20T13:11:33;100024.20;;;23.93
48894;BMP280;34710;35.798;139.446;2022-09-20T13:14:12;100021.66;;;23.90
48894;BMP280;34710;35.798;139.446;2022-09-20T13:16:51;100026.35;;;23.80
48894;BMP280;34710;35.798;139.446;2022-09-20T13:19:24;100027.92;;;23.90
48894;BMP280;34710;35.798;139.446;2022-09-20T13:21:59;100030.55;;;24.01
48894;BMP280;34710;35.798;139.446;2022-09-20T13:24:36;100030.99;;;22.23
48894;BMP280;34710;35.798;139.446;2022-09-20T13:27:10;100032.55;;;22.11
48894;BMP280;34710;35.798;139.446;2022-09-20T13:29:42;100034.36;;;22.30
48894;BMP280;34710;35.798;139.446;2022-09-20T13:32:23;100036.60;;;21.91
48894;BMP280;34710;35.798;139.446;2022-09-20T13:35:09;100037.08;;;20.50
48894;BMP280;34710;35.798;139.446;2022-09-20T13:37:48;100037.38;;;20.78
48894;BMP280;34710;35.798;139.446;2022-09-20T13:40:20;100035.38;;;21.54
48894;BMP280;34710;35.798;139.446;2022-09-20T13:42:51;100037.62;;;21.72
48894;BMP280;34710;35.798;139.446;2022-09-20T13:45:23;100040.65;;;21.61
48894;BMP280;34710;35.798;139.446;2022-09-20T13:47:53;100047.92;;;20.06
48894;BMP280;34710;35.798;139.446;2022-09-20T13:50:27;100048.77;;;20.03
48894;BMP280;34710;35.798;139.446;2022-09-20T13:52:58;100047.87;;;20.22
48894;BMP280;34710;35.798;139.446;2022-09-20T13:55:31;100044.50;;;20.88
48894;BMP280;34710;35.798;139.446;2022-09-20T13:58:02;100049.41;;;19.89
48894;BMP280;34710;35.798;139.446;2022-09-20T14:00:32;100055.60;;;19.67
48894;BMP280;34710;35.798;139.446;2022-09-20T14:03:04;100053.31;;;20.60
48894;BMP280;34710;35.798;139.446;2022-09-20T14:05:34;100048.70;;;20.70
48894;BMP280;34710;35.798;139.446;2022-09-20T14:08:03;100053.23;;;20.23
48894;BMP280;34710;35.798;139.446;2022-09-20T14:10:34;100058.59;;;20.09
48894;BMP280;34710;35.798;139.446;2022-09-20T14:13:06;100058.98;;;20.72
48894;BMP280;34710;35.798;139.446;2022-09-20T14:15:40;100057.90;;;20.89
48894;BMP280;34710;35.798;139.446;2022-09-20T14:18:15;100051.59;;;21.13
48894;BMP280;34710;35.798;139.446;2022-09-20T14:20:45;100051.82;;;20.94
48894;BMP280;34710;35.798;139.446;2022-09-20T14:23:21;100055.27;;;20.80
48894;BMP280;34710;35.798;139.446;2022-09-20T14:26:22;100054.08;;;21.17
48894;BMP280;34710;35.798;139.446;2022-09-20T14:28:51;100055.68;;;21.38
48894;BMP280;34710;35.798;139.446;2022-09-20T14:31:24;100053.64;;;21.84
48894;BMP280;34710;35.798;139.446;2022-09-20T14:33:56;100051.24;;;22.26
48894;BMP280;34710;35.798;139.446;2022-09-20T14:36:28;100056.28;;;21.88
48894;BMP280;34710;35.798;139.446;2022-09-20T14:39:02;100063.07;;;21.94
48894;BMP280;34710;35.798;139.446;2022-09-20T14:41:35;100065.47;;;21.88
48894;BMP280;34710;35.798;139.446;2022-09-20T14:44:20;100064.89;;;21.96
48894;BMP280;34710;35.798;139.446;2022-09-20T14:46:51;100060.76;;;21.82
48894;BMP280;34710;35.798;139.446;2022-09-20T14:49:29;100066.86;;;22.04